createdAt,value
2023-05-14T00:01:00.667Z,21.9452
2023-05-14T00:02:01.901Z,21.8957
2023-05-14T00:03:02.959Z,21.8563
2023-05-14T00:04:04.007Z,21.8416
2023-05-14T00:05:05.074Z,21.8407
2023-05-14T00:06:06.136Z,21.8678
2023-05-14T00:07:07.234Z,21.8950
2023-05-14T00:08:08.331Z,21.9075
2023-05-14T00:09:09.432Z,21.9572
2023-05-14T00:10:10.525Z,22.0197
2023-05-14T00:11:11.627Z,22.0086
2023-05-14T00:12:12.717Z,21.9715
2023-05-14T00:13:13.788Z,21.9380
2023-05-14T00:14:14.898Z,21.9430
2023-05-14T00:15:16.002Z,21.9491
2023-05-14T00:16:17.102Z,21.9510
2023-05-14T00:17:18.193Z,21.9088
2023-05-14T00:18:19.302Z,21.9021
2023-05-14T00:19:20.667Z,21.9000
2023-05-14T00:20:21.736Z,21.9359
2023-05-14T00:21:22.589Z,21.9821
2023-05-14T00:22:23.671Z,21.9901
2023-05-14T00:23:24.765Z,22.0201
2023-05-14T00:24:25.856Z,21.9859
2023-05-14T00:25:26.981Z,21.9443
2023-05-14T00:26:28.050Z,21.9584
2023-05-14T00:27:29.161Z,21.9636
2023-05-14T00:28:30.235Z,21.8757
2023-05-14T00:29:31.373Z,21.8573
2023-05-14T00:30:32.406Z,21.8083
2023-05-14T00:31:33.532Z,21.7909
2023-05-14T00:32:34.653Z,21.8200
2023-05-14T00:33:35.717Z,21.9069
2023-05-14T00:34:36.812Z,21.9010
2023-05-14T00:35:37.898Z,21.8875
2023-05-14T00:36:39.028Z,21.8801
2023-05-14T00:37:40.105Z,21.8507
2023-05-14T00:38:41.181Z,21.8521
2023-05-14T00:39:42.275Z,21.8888
2023-05-14T00:40:43.396Z,21.8648
2023-05-14T00:41:44.485Z,21.8979
2023-05-14T00:42:45.581Z,21.8526
2023-05-14T00:43:46.673Z,21.8456
2023-05-14T00:44:47.765Z,21.8297
2023-05-14T00:45:48.856Z,21.7980
2023-05-14T00:46:49.985Z,21.7874
2023-05-14T00:47:51.092Z,21.8171
2023-05-14T00:48:52.139Z,21.8320
2023-05-14T00:49:53.230Z,21.8171
2023-05-14T00:50:54.357Z,21.8358
2023-05-14T00:51:55.445Z,21.7500
2023-05-14T00:52:56.535Z,21.7322
2023-05-14T00:53:57.622Z,21.6992
2023-05-14T00:54:58.729Z,21.7043
2023-05-14T00:55:59.840Z,21.7549
2023-05-14T00:57:00.940Z,21.7657
2023-05-14T00:58:02.025Z,21.7844
2023-05-14T00:59:03.145Z,21.8001
2023-05-14T01:00:04.215Z,21.7558
2023-05-14T01:01:05.348Z,21.7415
2023-05-14T01:02:06.408Z,21.7554
2023-05-14T01:03:07.648Z,21.8060
2023-05-14T01:04:08.641Z,21.8118
2023-05-14T01:05:09.691Z,21.8477
2023-05-14T01:06:10.805Z,21.9150
2023-05-14T01:07:11.877Z,21.9176
2023-05-14T01:08:12.975Z,21.8632
2023-05-14T01:09:14.074Z,21.8401
2023-05-14T01:10:15.170Z,21.8210
2023-05-14T01:11:16.272Z,21.8320
2023-05-14T01:12:17.350Z,21.8469
2023-05-14T01:13:18.521Z,21.8452
2023-05-14T01:14:19.541Z,21.8349
2023-05-14T01:15:20.635Z,21.8636
2023-05-14T01:16:21.784Z,21.8856
2023-05-14T01:17:22.836Z,21.8885
2023-05-14T01:18:23.942Z,21.8574
2023-05-14T01:19:25.017Z,21.8412
2023-05-14T01:20:26.290Z,21.8836
2023-05-14T01:21:27.233Z,21.8728
2023-05-14T01:22:28.297Z,21.8562
2023-05-14T01:23:29.388Z,21.9115
2023-05-14T01:24:30.482Z,21.9123
2023-05-14T01:25:31.598Z,21.8464
2023-05-14T01:26:32.689Z,21.7963
2023-05-14T01:27:33.777Z,21.7798
2023-05-14T01:28:34.878Z,21.7682
2023-05-14T01:29:35.951Z,21.7941
2023-05-14T01:30:37.067Z,21.8495
2023-05-14T01:31:38.229Z,21.8921
2023-05-14T01:32:39.316Z,21.8764
2023-05-14T01:33:40.353Z,21.7781
2023-05-14T01:34:41.453Z,21.7370
2023-05-14T01:35:42.572Z,21.7716
2023-05-14T01:36:43.654Z,21.8313
2023-05-14T01:37:44.730Z,21.8967
2023-05-14T01:38:45.871Z,21.9123
2023-05-14T01:39:46.936Z,21.9077
2023-05-14T01:40:48.043Z,21.8879
2023-05-14T01:41:49.124Z,21.8743
2023-05-14T01:42:50.243Z,21.9092
2023-05-14T01:43:51.297Z,21.9506
2023-05-14T01:44:52.408Z,22.0226
2023-05-14T01:45:53.543Z,22.0786
2023-05-14T01:46:54.650Z,22.0670
2023-05-14T01:47:55.715Z,21.9977
2023-05-14T01:48:56.799Z,21.8492
2023-05-14T01:49:57.910Z,21.8207
2023-05-14T01:50:58.994Z,21.8910
2023-05-14T01:52:00.111Z,21.8857
2023-05-14T01:53:01.171Z,21.8880
2023-05-14T01:54:02.282Z,21.9303
2023-05-14T01:55:03.393Z,21.9180
2023-05-14T01:56:04.478Z,21.9394
2023-05-14T01:57:05.604Z,21.9032
2023-05-14T01:58:06.655Z,21.8821
2023-05-14T01:59:07.758Z,21.9173
2023-05-14T02:00:08.857Z,21.8479
2023-05-14T02:01:09.985Z,21.7685
2023-05-14T02:02:11.057Z,21.7623
2023-05-14T02:03:12.228Z,21.7285
2023-05-14T02:04:13.329Z,21.7408
2023-05-14T02:05:21.869Z,21.8078
2023-05-14T02:06:15.422Z,21.8773
2023-05-14T02:07:16.562Z,21.9362
2023-05-14T02:08:17.639Z,21.9365
2023-05-14T02:09:18.711Z,21.8761
2023-05-14T02:10:27.398Z,21.8283
2023-05-14T02:11:20.923Z,21.8438
2023-05-14T02:12:22.049Z,21.8628
2023-05-14T02:13:23.103Z,21.8454
2023-05-14T02:14:24.217Z,21.8367
2023-05-14T02:15:25.310Z,21.8042
2023-05-14T02:16:26.419Z,21.8110
2023-05-14T02:17:27.577Z,21.8360
2023-05-14T02:18:28.634Z,21.8689
2023-05-14T02:19:29.712Z,21.8186
2023-05-14T02:20:30.809Z,21.8151
2023-05-14T02:21:31.889Z,21.7873
2023-05-14T02:22:33.010Z,21.8189
2023-05-14T02:23:40.936Z,21.8164
2023-05-14T02:24:36.183Z,21.7434
2023-05-14T02:25:36.298Z,21.7649
2023-05-14T02:26:37.412Z,21.8088
2023-05-14T02:27:38.507Z,21.8342
2023-05-14T02:28:39.573Z,21.8074
2023-05-14T02:29:40.669Z,21.8272
2023-05-14T02:30:41.765Z,21.8607
2023-05-14T02:31:42.908Z,21.8781
2023-05-14T02:32:44.045Z,21.8703
2023-05-14T02:33:45.081Z,21.8200
2023-05-14T02:34:46.154Z,21.8011
2023-05-14T02:35:47.273Z,21.7825
2023-05-14T02:36:48.337Z,21.7432
2023-05-14T02:37:49.464Z,21.7004
2023-05-14T02:38:50.556Z,21.7154
2023-05-14T02:39:51.633Z,21.7018
2023-05-14T02:40:52.741Z,21.6593
2023-05-14T02:41:53.823Z,21.6557
2023-05-14T02:42:55.032Z,21.6658
2023-05-14T02:43:56.081Z,21.7359
2023-05-14T02:44:57.223Z,21.7981
2023-05-14T02:45:58.294Z,21.8813
2023-05-14T02:46:59.422Z,21.9175
2023-05-14T02:48:00.522Z,21.9231
2023-05-14T02:49:01.569Z,21.9291
2023-05-14T02:50:02.696Z,21.9461
2023-05-14T02:51:03.786Z,21.9656
2023-05-14T02:52:04.890Z,21.9600
2023-05-14T02:53:05.989Z,21.9443
2023-05-14T02:54:07.051Z,21.9386
2023-05-14T02:55:08.168Z,21.8884
2023-05-14T02:56:09.287Z,21.9094
2023-05-14T02:57:10.376Z,21.9284
2023-05-14T02:58:11.470Z,21.9440
2023-05-14T02:59:12.559Z,21.8959
2023-05-14T03:00:13.642Z,21.8343
2023-05-14T03:01:14.765Z,21.8410
2023-05-14T03:02:15.900Z,21.8052
2023-05-14T03:03:17.044Z,21.8025
2023-05-14T03:04:18.029Z,21.8111
2023-05-14T03:05:19.115Z,21.8397
2023-05-14T03:06:20.227Z,21.8421
2023-05-14T03:07:21.317Z,21.8244
2023-05-14T03:08:22.458Z,21.8306
2023-05-14T03:09:23.520Z,21.7932
2023-05-14T03:10:24.816Z,21.7743
2023-05-14T03:11:25.725Z,21.7667
2023-05-14T03:12:26.793Z,21.7573
2023-05-14T03:13:27.921Z,21.7488
2023-05-14T03:14:29.008Z,21.6989
2023-05-14T03:15:30.091Z,21.6834
2023-05-14T03:16:31.229Z,21.6798
2023-05-14T03:17:32.327Z,21.7227
2023-05-14T03:18:33.427Z,21.7585
2023-05-14T03:19:34.472Z,21.8048
2023-05-14T03:20:35.567Z,21.7993
2023-05-14T03:21:36.669Z,21.7991
2023-05-14T03:22:37.748Z,21.7405
2023-05-14T03:23:38.864Z,21.7200
2023-05-14T03:24:40.003Z,21.7135
2023-05-14T03:25:41.048Z,21.7461
2023-05-14T03:26:42.158Z,21.7094
2023-05-14T03:27:43.239Z,21.6606
2023-05-14T03:28:44.330Z,21.6562
2023-05-14T03:29:45.421Z,21.6382
2023-05-14T03:30:46.533Z,21.6570
2023-05-14T03:31:47.630Z,21.7265
2023-05-14T03:32:48.733Z,21.7637
2023-05-14T03:33:49.836Z,21.8053
2023-05-14T03:34:50.905Z,21.8206
2023-05-14T03:35:51.999Z,21.8371
2023-05-14T03:36:53.112Z,21.8377
2023-05-14T03:37:54.204Z,21.8366
2023-05-14T03:38:55.314Z,21.8554
2023-05-14T03:39:56.396Z,21.9098
2023-05-14T03:40:57.508Z,21.9538
2023-05-14T03:41:58.578Z,21.8950
2023-05-14T03:42:59.733Z,21.8277
2023-05-14T03:44:00.817Z,21.7783
2023-05-14T03:45:01.873Z,21.7063
2023-05-14T03:46:03.006Z,21.6497
2023-05-14T03:47:04.082Z,21.6343
2023-05-14T03:48:05.284Z,21.6162
2023-05-14T03:49:06.322Z,21.6350
2023-05-14T03:50:07.359Z,21.7048
2023-05-14T03:51:08.477Z,21.7657
2023-05-14T03:52:09.519Z,21.7748
2023-05-14T03:53:10.608Z,21.7259
2023-05-14T03:54:11.759Z,21.7211
2023-05-14T03:55:12.804Z,21.7054
2023-05-14T03:56:13.910Z,21.7771
2023-05-14T03:57:15.010Z,21.7575
2023-05-14T03:58:16.134Z,21.7064
2023-05-14T03:59:17.193Z,21.6554
2023-05-14T04:00:18.293Z,21.6984
2023-05-14T04:01:19.387Z,21.7162
2023-05-14T04:02:20.513Z,21.7426
2023-05-14T04:03:21.647Z,21.7275
2023-05-14T04:04:22.699Z,21.7940
2023-05-14T04:05:23.755Z,21.9054
2023-05-14T04:06:24.854Z,21.8622
2023-05-14T04:07:25.946Z,21.7543
2023-05-14T04:08:27.060Z,21.6927
2023-05-14T04:09:28.189Z,21.7009
2023-05-14T04:10:29.240Z,21.7079
2023-05-14T04:11:30.335Z,21.6872
2023-05-14T04:12:31.419Z,21.6735
2023-05-14T04:13:32.537Z,21.6604
2023-05-14T04:14:33.659Z,21.6803
2023-05-14T04:15:34.723Z,21.7207
2023-05-14T04:16:35.873Z,21.7512
2023-05-14T04:17:36.949Z,21.7672
2023-05-14T04:18:38.052Z,21.7445
2023-05-14T04:19:39.142Z,21.7433
2023-05-14T04:20:40.211Z,21.7583
2023-05-14T04:21:41.288Z,21.7270
2023-05-14T04:22:42.396Z,21.6972
2023-05-14T04:23:43.508Z,21.7186
2023-05-14T04:24:44.587Z,21.7506
2023-05-14T04:25:45.694Z,21.7577
2023-05-14T04:26:46.785Z,21.7264
2023-05-14T04:27:47.867Z,21.6759
2023-05-14T04:28:48.970Z,21.6303
2023-05-14T04:29:50.056Z,21.6140
2023-05-14T04:30:51.160Z,21.6014
2023-05-14T04:31:52.300Z,21.6445
2023-05-14T04:32:53.383Z,21.6189
2023-05-14T04:33:54.442Z,21.6663
2023-05-14T04:34:55.550Z,21.7620
2023-05-14T04:35:56.664Z,21.7985
2023-05-14T04:36:57.737Z,21.8416
2023-05-14T04:37:58.828Z,21.8592
2023-05-14T04:38:59.925Z,21.8345
2023-05-14T04:40:01.044Z,21.8017
2023-05-14T04:41:02.153Z,21.7886
2023-05-14T04:42:03.231Z,21.7747
2023-05-14T04:43:04.329Z,21.7959
2023-05-14T04:44:05.405Z,21.8018
2023-05-14T04:45:06.520Z,21.7704
2023-05-14T04:46:07.638Z,21.7951
2023-05-14T04:47:08.682Z,21.7683
2023-05-14T04:48:09.831Z,21.7270
2023-05-14T04:49:10.910Z,21.6867
2023-05-14T04:50:11.999Z,21.6888
2023-05-14T04:51:13.084Z,21.7437
2023-05-14T04:52:14.189Z,21.8448
2023-05-14T04:53:15.277Z,21.8738
2023-05-14T04:54:16.404Z,21.8725
2023-05-14T04:55:17.486Z,21.8769
2023-05-14T04:56:18.598Z,21.8767
2023-05-14T04:57:19.651Z,21.9030
2023-05-14T04:58:20.740Z,21.8629
2023-05-14T04:59:21.834Z,21.7894
2023-05-14T05:00:23.296Z,21.7908
2023-05-14T05:01:24.087Z,21.7729
2023-05-14T05:02:25.178Z,21.7408
2023-05-14T05:03:26.262Z,21.7170
2023-05-14T05:04:27.325Z,21.6733
2023-05-14T05:05:28.444Z,21.6201
2023-05-14T05:06:29.537Z,21.5867
2023-05-14T05:07:30.641Z,21.5478
2023-05-14T05:08:31.716Z,21.5690
2023-05-14T05:09:32.819Z,21.6313
2023-05-14T05:10:33.958Z,21.7121
2023-05-14T05:11:35.024Z,21.6572
2023-05-14T05:12:36.102Z,21.6565
2023-05-14T05:13:37.199Z,21.7238
2023-05-14T05:14:38.306Z,21.7748
2023-05-14T05:15:39.456Z,21.7513
2023-05-14T05:16:40.510Z,21.7895
2023-05-14T05:17:41.643Z,21.7658
2023-05-14T05:18:42.716Z,21.7223
2023-05-14T05:19:44.621Z,21.6585
2023-05-14T05:20:44.887Z,21.6394
2023-05-14T05:21:46.006Z,21.6389
2023-05-14T05:22:47.093Z,21.6535
2023-05-14T05:23:48.174Z,21.6130
2023-05-14T05:24:50.029Z,21.5860
2023-05-14T05:25:50.402Z,21.5719
2023-05-14T05:26:51.495Z,21.6294
2023-05-14T05:27:52.552Z,21.7100
2023-05-14T05:28:53.649Z,21.7457
2023-05-14T05:29:54.747Z,21.7572
2023-05-14T05:30:55.869Z,21.7722
2023-05-14T05:31:57.019Z,21.7767
2023-05-14T05:32:58.092Z,21.7560
2023-05-14T05:33:59.157Z,21.7587
2023-05-14T05:35:00.239Z,21.8262
2023-05-14T05:36:01.352Z,21.8671
2023-05-14T05:37:02.439Z,21.8104
2023-05-14T05:38:03.543Z,21.7889
2023-05-14T05:39:04.639Z,21.7703
2023-05-14T05:40:05.744Z,21.7562
2023-05-14T05:41:06.855Z,21.7570
2023-05-14T05:42:07.932Z,21.7014
2023-05-14T05:43:09.020Z,21.6985
2023-05-14T05:44:10.124Z,21.6934
2023-05-14T05:45:11.215Z,21.7837
2023-05-14T05:46:12.343Z,21.8599
2023-05-14T05:47:13.438Z,21.8357
2023-05-14T05:48:14.537Z,21.8426
2023-05-14T05:49:15.621Z,21.8172
2023-05-14T05:50:18.399Z,21.8118
2023-05-14T05:51:17.851Z,21.7739
2023-05-14T05:52:18.900Z,21.7475
2023-05-14T05:53:20.035Z,21.6903
2023-05-14T05:54:21.105Z,21.6639
2023-05-14T05:55:22.210Z,21.7132
2023-05-14T05:56:23.311Z,21.7085
2023-05-14T05:57:26.305Z,21.7140
2023-05-14T05:58:25.525Z,21.6366
2023-05-14T05:59:26.628Z,21.6684
2023-05-14T06:00:27.701Z,21.6968
2023-05-14T06:01:28.832Z,21.7073
2023-05-14T06:02:29.997Z,21.7395
2023-05-14T06:03:31.003Z,21.7331
2023-05-14T06:04:32.129Z,21.7374
2023-05-14T06:05:33.303Z,21.8017
2023-05-14T06:06:34.328Z,21.8030
2023-05-14T06:07:35.389Z,21.8374
2023-05-14T06:08:36.513Z,21.8432
2023-05-14T06:09:37.629Z,21.8438
2023-05-14T06:10:38.709Z,21.8138
2023-05-14T06:11:39.800Z,21.7694
2023-05-14T06:12:40.908Z,21.7665
2023-05-14T06:13:41.994Z,21.7911
2023-05-14T06:14:43.107Z,21.8368
2023-05-14T06:15:44.218Z,21.8108
2023-05-14T06:16:45.362Z,21.7969
2023-05-14T06:17:46.439Z,21.8049
2023-05-14T06:18:47.510Z,21.8433
2023-05-14T06:19:48.632Z,21.8164
2023-05-14T06:20:49.682Z,21.7894
2023-05-14T06:21:50.811Z,21.8167
2023-05-14T06:22:51.899Z,21.8588
2023-05-14T06:23:53.002Z,21.8834
2023-05-14T06:24:54.104Z,21.9074
2023-05-14T06:25:55.174Z,21.8732
2023-05-14T06:26:56.294Z,21.9078
2023-05-14T06:27:57.358Z,21.9405
2023-05-14T06:28:58.471Z,21.9039
2023-05-14T06:29:59.581Z,21.8233
2023-05-14T06:31:00.671Z,21.7664
2023-05-14T06:32:01.842Z,21.7238
2023-05-14T06:33:02.884Z,21.7645
2023-05-14T06:34:03.957Z,21.8066
2023-05-14T06:35:05.058Z,21.8309
2023-05-14T06:36:06.148Z,21.8327
2023-05-14T06:37:07.275Z,21.8067
2023-05-14T06:38:08.367Z,21.8738
2023-05-14T06:39:09.466Z,21.9453
2023-05-14T06:40:10.550Z,21.9080
2023-05-14T06:41:11.642Z,21.8901
2023-05-14T06:42:12.750Z,21.9302
2023-05-14T06:43:13.941Z,21.9805
2023-05-14T06:44:15.033Z,21.9812
2023-05-14T06:45:16.143Z,21.9974
2023-05-14T06:46:17.238Z,21.9760
2023-05-14T06:47:18.320Z,21.9686
2023-05-14T06:48:19.536Z,21.8815
2023-05-14T06:49:20.540Z,21.8041
2023-05-14T06:50:21.828Z,21.8059
2023-05-14T06:51:22.723Z,21.8152
2023-05-14T06:52:23.827Z,21.7921
2023-05-14T06:53:24.934Z,21.8072
2023-05-14T06:54:26.038Z,21.7682
2023-05-14T06:55:27.101Z,21.7692
2023-05-14T06:56:28.221Z,21.7628
2023-05-14T06:57:29.323Z,21.7351
2023-05-14T06:58:30.429Z,21.7668
2023-05-14T06:59:31.505Z,21.7485
2023-05-14T07:00:32.624Z,21.7395
2023-05-14T07:01:33.746Z,21.7810
2023-05-14T07:02:34.834Z,21.7851
2023-05-14T07:03:35.899Z,21.7706
2023-05-14T07:04:37.081Z,21.7745
2023-05-14T07:05:38.116Z,21.7503
2023-05-14T07:06:39.219Z,21.7463
2023-05-14T07:07:40.325Z,21.7665
2023-05-14T07:08:41.408Z,21.8383
2023-05-14T07:09:42.496Z,21.8668
2023-05-14T07:10:43.619Z,21.8876
2023-05-14T07:11:44.720Z,21.9366
2023-05-14T07:12:45.846Z,21.9378
2023-05-14T07:13:46.935Z,21.9065
2023-05-14T07:14:48.028Z,21.8230
2023-05-14T07:15:49.098Z,21.8266
2023-05-14T07:16:50.258Z,21.8706
2023-05-14T07:17:51.345Z,21.8698
2023-05-14T07:18:52.450Z,21.8517
2023-05-14T07:19:53.496Z,21.8401
2023-05-14T07:20:54.587Z,21.8431
2023-05-14T07:21:55.709Z,21.8435
2023-05-14T07:22:56.841Z,21.8237
2023-05-14T07:23:57.884Z,21.8473
2023-05-14T07:24:58.984Z,21.8559
2023-05-14T07:26:00.096Z,21.8348
2023-05-14T07:27:01.203Z,21.7965
2023-05-14T07:28:02.288Z,21.7694
2023-05-14T07:29:03.406Z,21.7926
2023-05-14T07:30:04.482Z,21.8056
2023-05-14T07:31:05.681Z,21.8061
2023-05-14T07:32:06.701Z,21.8468
2023-05-14T07:33:07.829Z,21.8732
2023-05-14T07:34:08.886Z,21.8655
2023-05-14T07:35:09.975Z,21.8510
2023-05-14T07:36:11.123Z,21.8486
2023-05-14T07:37:12.194Z,21.7826
2023-05-14T07:38:13.273Z,21.7364
2023-05-14T07:39:14.364Z,21.8037
2023-05-14T07:40:15.481Z,21.8606
2023-05-14T07:41:16.571Z,21.8438
2023-05-14T07:42:28.004Z,21.8454
2023-05-14T07:43:19.778Z,21.8483
2023-05-14T07:44:19.865Z,21.8384
2023-05-14T07:45:20.957Z,21.8325
2023-05-14T07:46:22.070Z,21.8472
2023-05-14T07:47:23.188Z,21.8746
2023-05-14T07:48:24.341Z,21.8444
2023-05-14T07:49:25.377Z,21.8479
2023-05-14T07:50:26.748Z,21.8429
2023-05-14T07:51:27.560Z,21.8059
2023-05-14T07:52:28.637Z,21.7513
2023-05-14T07:53:29.758Z,21.7176
2023-05-14T07:54:30.850Z,21.7129
2023-05-14T07:55:31.952Z,21.6940
2023-05-14T07:56:33.055Z,21.7436
2023-05-14T07:57:34.152Z,21.7880
2023-05-14T07:58:35.255Z,21.8197
2023-05-14T07:59:36.345Z,21.8362
2023-05-14T08:00:37.450Z,21.8177
2023-05-14T08:01:39.480Z,21.8052
2023-05-14T08:02:39.766Z,21.7705
2023-05-14T08:03:40.793Z,21.7738
2023-05-14T08:04:41.839Z,21.8033
2023-05-14T08:05:42.964Z,21.8576
2023-05-14T08:06:44.053Z,21.8945
2023-05-14T08:07:45.163Z,21.8608
2023-05-14T08:08:46.321Z,21.8423
2023-05-14T08:09:47.348Z,21.8680
2023-05-14T08:10:48.457Z,21.9018
2023-05-14T08:11:49.553Z,21.9042
2023-05-14T08:12:50.651Z,21.9326
2023-05-14T08:13:51.757Z,21.9200
2023-05-14T08:14:52.846Z,21.8901
2023-05-14T08:15:53.955Z,21.8102
2023-05-14T08:16:55.116Z,21.7193
2023-05-14T08:17:56.202Z,21.7261
2023-05-14T08:18:57.291Z,21.7996
2023-05-14T08:19:58.320Z,21.8063
2023-05-14T08:20:59.441Z,21.8168
2023-05-14T08:22:00.555Z,21.8638
2023-05-14T08:23:01.636Z,21.8865
2023-05-14T08:24:02.726Z,21.8957
2023-05-14T08:25:03.813Z,21.8769
2023-05-14T08:26:04.918Z,21.8733
2023-05-14T08:27:06.018Z,21.8682
2023-05-14T08:28:07.134Z,21.8458
2023-05-14T08:29:09.362Z,21.8188
2023-05-14T08:30:09.295Z,21.8199
2023-05-14T08:31:10.440Z,21.8292
2023-05-14T08:32:22.006Z,21.8492
2023-05-14T08:33:13.608Z,21.8613
2023-05-14T08:34:13.716Z,21.8060
2023-05-14T08:35:14.808Z,21.7464
2023-05-14T08:36:15.896Z,21.7618
2023-05-14T08:37:16.991Z,21.7594
2023-05-14T08:38:18.097Z,21.8043
2023-05-14T08:39:19.188Z,21.8427
2023-05-14T08:40:20.278Z,21.8693
2023-05-14T08:41:21.382Z,21.9139
2023-05-14T08:42:22.487Z,21.9381
2023-05-14T08:43:23.581Z,21.8878
2023-05-14T08:44:24.665Z,21.8499
2023-05-14T08:45:25.826Z,21.8780
2023-05-14T08:46:26.849Z,21.8786
2023-05-14T08:47:27.977Z,21.8517
2023-05-14T08:48:29.141Z,21.8724
2023-05-14T08:49:30.175Z,21.8784
2023-05-14T08:50:31.337Z,21.9090
2023-05-14T08:51:32.327Z,21.9497
2023-05-14T08:52:33.428Z,21.9560
2023-05-14T08:53:34.534Z,21.9470
2023-05-14T08:54:35.648Z,21.9132
2023-05-14T08:55:36.705Z,21.8460
2023-05-14T08:56:37.805Z,21.7659
2023-05-14T08:57:38.903Z,21.8045
2023-05-14T08:58:40.020Z,21.8319
2023-05-14T08:59:41.108Z,21.8576
2023-05-14T09:00:42.207Z,21.8920
2023-05-14T09:01:43.283Z,21.9063
2023-05-14T09:02:44.488Z,21.9074
2023-05-14T09:03:45.580Z,21.8960
2023-05-14T09:04:46.570Z,21.8803
2023-05-14T09:05:47.692Z,21.8816
2023-05-14T09:06:48.754Z,21.8692
2023-05-14T09:07:49.858Z,21.8421
2023-05-14T09:08:50.976Z,21.8709
2023-05-14T09:09:52.095Z,21.8782
2023-05-14T09:10:53.162Z,21.8537
2023-05-14T09:11:54.264Z,21.8368
2023-05-14T09:12:55.357Z,21.8501
2023-05-14T09:13:56.431Z,21.8541
2023-05-14T09:14:57.579Z,21.8493
2023-05-14T09:15:58.668Z,21.8714
2023-05-14T09:16:59.729Z,21.8621
2023-05-14T09:18:00.870Z,21.8472
2023-05-14T09:19:02.019Z,21.8604
2023-05-14T09:20:03.073Z,21.8939
2023-05-14T09:21:04.144Z,21.9509
2023-05-14T09:22:05.253Z,21.9940
2023-05-14T09:23:06.324Z,21.9209
2023-05-14T09:24:07.428Z,21.9042
2023-05-14T09:25:08.554Z,21.9286
2023-05-14T09:26:09.643Z,21.8634
2023-05-14T09:27:10.729Z,21.8674
2023-05-14T09:28:11.871Z,21.9007
2023-05-14T09:29:12.937Z,21.9258
2023-05-14T09:30:14.046Z,21.9552
2023-05-14T09:31:15.156Z,21.9408
2023-05-14T09:32:16.229Z,21.9250
2023-05-14T09:33:17.325Z,21.9046
2023-05-14T09:34:18.425Z,21.8837
2023-05-14T09:35:19.530Z,21.9288
2023-05-14T09:36:20.600Z,21.9123
2023-05-14T09:37:21.725Z,21.9015
2023-05-14T09:38:22.798Z,21.8936
2023-05-14T09:39:23.918Z,21.9162
2023-05-14T09:40:25.402Z,21.9381
2023-05-14T09:41:26.091Z,21.9452
2023-05-14T09:42:27.196Z,21.9460
2023-05-14T09:43:28.298Z,21.9586
2023-05-14T09:44:29.439Z,21.9562
2023-05-14T09:45:30.518Z,21.9241
2023-05-14T09:46:31.612Z,21.9194
2023-05-14T09:47:32.803Z,21.9168
2023-05-14T09:48:33.824Z,21.9058
2023-05-14T09:49:34.883Z,21.8723
2023-05-14T09:50:35.965Z,21.8669
2023-05-14T09:51:37.061Z,21.8450
2023-05-14T09:52:38.171Z,21.8381
2023-05-14T09:53:39.262Z,21.8716
2023-05-14T09:54:40.362Z,21.8625
2023-05-14T09:55:41.474Z,21.9065
2023-05-14T09:56:42.529Z,21.9311
2023-05-14T09:57:43.648Z,21.9742
2023-05-14T09:58:44.750Z,21.9906
2023-05-14T09:59:45.841Z,21.9767
2023-05-14T10:00:46.967Z,21.9758
2023-05-14T10:01:48.017Z,21.9665
2023-05-14T10:02:49.147Z,21.9583
2023-05-14T10:03:50.299Z,21.9018
2023-05-14T10:04:51.414Z,21.8433
2023-05-14T10:05:52.422Z,21.8595
2023-05-14T10:06:53.511Z,21.8427
2023-05-14T10:07:54.604Z,21.8142
2023-05-14T10:08:55.680Z,21.7727
2023-05-14T10:09:58.148Z,21.7933
2023-05-14T10:10:57.869Z,21.8126
2023-05-14T10:11:58.992Z,21.8288
2023-05-14T10:13:00.107Z,21.8159
2023-05-14T10:14:01.203Z,21.7934
2023-05-14T10:15:02.260Z,21.8243
2023-05-14T10:16:03.392Z,21.8248
2023-05-14T10:17:04.501Z,21.7924
2023-05-14T10:18:05.615Z,21.8134
2023-05-14T10:19:06.666Z,21.8825
2023-05-14T10:20:07.751Z,21.8625
2023-05-14T10:21:08.845Z,21.8288
2023-05-14T10:22:09.929Z,21.7742
2023-05-14T10:23:11.076Z,21.7459
2023-05-14T10:24:12.156Z,21.7938
2023-05-14T10:25:13.245Z,21.8382
2023-05-14T10:26:14.335Z,21.8562
2023-05-14T10:27:15.435Z,21.8959
2023-05-14T10:28:16.526Z,21.9305
2023-05-14T10:29:17.636Z,21.9937
2023-05-14T10:30:18.727Z,21.9582
2023-05-14T10:31:19.876Z,21.9300
2023-05-14T10:32:20.961Z,21.8975
2023-05-14T10:33:22.033Z,21.8937
2023-05-14T10:34:23.100Z,21.8850
2023-05-14T10:35:24.214Z,21.8242
2023-05-14T10:36:25.300Z,21.8724
2023-05-14T10:37:26.421Z,21.9579
2023-05-14T10:38:27.512Z,21.9874
2023-05-14T10:39:28.593Z,21.9744
2023-05-14T10:40:29.691Z,22.0099
2023-05-14T10:41:30.832Z,22.0308
2023-05-14T10:42:31.923Z,21.9604
2023-05-14T10:43:33.022Z,21.9169
2023-05-14T10:44:34.168Z,21.9230
2023-05-14T10:45:35.226Z,21.9632
2023-05-14T10:46:36.366Z,21.9843
2023-05-14T10:47:37.491Z,21.9690
2023-05-14T10:48:38.550Z,21.9408
2023-05-14T10:49:43.425Z,21.9489
2023-05-14T10:50:40.770Z,21.9343
2023-05-14T10:51:41.916Z,21.9374
2023-05-14T10:52:42.894Z,21.9658
2023-05-14T10:53:44.025Z,21.9887
2023-05-14T10:54:45.118Z,22.0252
2023-05-14T10:55:46.199Z,22.0460
2023-05-14T10:56:47.313Z,22.0125
2023-05-14T10:57:48.393Z,21.9860
2023-05-14T10:58:49.535Z,21.9865
2023-05-14T10:59:50.590Z,21.9554
2023-05-14T11:00:51.718Z,21.9113
2023-05-14T11:01:52.801Z,21.9830
2023-05-14T11:02:53.898Z,22.0338
2023-05-14T11:03:55.011Z,22.0634
2023-05-14T11:04:56.073Z,22.0393
2023-05-14T11:05:57.152Z,22.0313
2023-05-14T11:06:58.245Z,22.0715
2023-05-14T11:07:59.329Z,22.1165
2023-05-14T11:09:00.407Z,22.1087
2023-05-14T11:10:01.511Z,22.1234
2023-05-14T11:11:02.608Z,22.1242
2023-05-14T11:12:03.744Z,22.1087
2023-05-14T11:13:04.799Z,22.1206
2023-05-14T11:14:06.716Z,22.1860
2023-05-14T11:15:06.978Z,22.1287
2023-05-14T11:16:21.807Z,22.1376
2023-05-14T11:17:10.240Z,22.1386
2023-05-14T11:18:10.305Z,22.0775
2023-05-14T11:19:11.561Z,22.0691
2023-05-14T11:20:12.454Z,22.0725
2023-05-14T11:21:13.534Z,22.0859
2023-05-14T11:22:14.649Z,22.0900
2023-05-14T11:23:15.699Z,22.0833
2023-05-14T11:24:16.804Z,22.1565
2023-05-14T11:25:17.905Z,22.2003
2023-05-14T11:26:21.533Z,22.2120
2023-05-14T11:27:20.089Z,22.1873
2023-05-14T11:28:21.156Z,22.2221
2023-05-14T11:29:22.253Z,22.1743
2023-05-14T11:30:23.553Z,22.1377
2023-05-14T11:31:24.486Z,22.1184
2023-05-14T11:32:25.572Z,22.0952
2023-05-14T11:33:26.641Z,22.0473
2023-05-14T11:34:27.719Z,21.9682
2023-05-14T11:35:28.806Z,21.8472
2023-05-14T11:36:29.882Z,21.7950
2023-05-14T11:37:31.022Z,21.8868
2023-05-14T11:38:32.096Z,21.9351
2023-05-14T11:39:33.181Z,21.8764
2023-05-14T11:40:34.280Z,21.9184
2023-05-14T11:41:35.351Z,21.9521
2023-05-14T11:42:36.452Z,21.9401
2023-05-14T11:43:37.561Z,21.9350
2023-05-14T11:44:38.655Z,21.9782
2023-05-14T11:45:39.759Z,22.0053
2023-05-14T11:46:40.893Z,21.9873
2023-05-14T11:47:42.006Z,21.9064
2023-05-14T11:48:43.030Z,21.9503
2023-05-14T11:49:44.122Z,21.9694
2023-05-14T11:50:45.212Z,21.9583
2023-05-14T11:51:46.298Z,22.0118
2023-05-14T11:52:47.393Z,21.9941
2023-05-14T11:53:48.504Z,22.0342
2023-05-14T11:54:49.587Z,22.0674
2023-05-14T11:55:50.696Z,22.0872
2023-05-14T11:56:51.760Z,22.0189
2023-05-14T11:57:52.855Z,22.0637
2023-05-14T11:58:53.967Z,22.0639
2023-05-14T11:59:55.040Z,22.0561
2023-05-14T12:00:56.143Z,22.0210
2023-05-14T12:01:57.235Z,22.0738
2023-05-14T12:02:58.370Z,22.1180
2023-05-14T12:03:59.471Z,22.1625
2023-05-14T12:05:00.484Z,22.1050
2023-05-14T12:06:01.599Z,22.0573
2023-05-14T12:07:02.656Z,22.0452
2023-05-14T12:08:03.793Z,22.0473
2023-05-14T12:09:04.863Z,22.1122
2023-05-14T12:10:05.975Z,22.1587
2023-05-14T12:11:07.040Z,22.1701
2023-05-14T12:12:08.129Z,22.1091
2023-05-14T12:13:09.244Z,22.1161
2023-05-14T12:14:10.332Z,22.1196
2023-05-14T12:15:11.434Z,22.1188
2023-05-14T12:16:12.629Z,22.1383
2023-05-14T12:17:13.609Z,22.1385
2023-05-14T12:18:23.950Z,22.0872
2023-05-14T12:19:16.844Z,22.1099